Time;durP1;ratioP1;P1;durP2;ratioP2;P2;SDS_P1;SDS_P2;PMS_P1;PMS_P2;Temp;Humidity;BMP_temperature;BMP_pressure;BME280_temperature;BME280_humidity;BME280_pressure;Samples;Min_cycle;Max_cycle;Signal;HPM_P1;HPM_P2
2022/05/22 00:01:19;;;;;;;7.47;2.90;;;;;;;;;;5025710;28;20062;-73
2022/05/22 00:03:48;;;;;;;4.95;2.40;;;;;;;;;;5021747;28;20037;-70
2022/05/22 00:06:15;;;;;;;4.50;2.22;;;;;;;;;;4999137;28;20052;-71
2022/05/22 00:08:43;;;;;;;4.80;2.13;;;;;;;;;;5017949;28;20045;-71
2022/05/22 00:11:11;;;;;;;5.82;2.95;;;;;;;;;;5017269;28;20041;-70
2022/05/22 00:13:38;;;;;;;3.47;2.25;;;;;;;;;;5022571;28;20573;-71
2022/05/22 00:18:49;;;;;;;8.98;2.63;;;;;;;;;;5017900;28;20052;-72
2022/05/22 00:21:15;;;;;;;10.23;2.78;;;;;;;;;;5024868;28;20409;-72
2022/05/22 00:23:43;;;;;;;5.68;2.60;;;;;;;;;;5026750;28;20424;-72
2022/05/22 00:26:09;;;;;;;6.25;2.50;;;;;;;;;;5025138;28;20450;-72
2022/05/22 00:28:35;;;;;;;5.15;2.45;;;;;;;;;;5024957;28;20013;-72
2022/05/22 00:31:01;;;;;;;5.50;2.58;;;;;;;;;;5009141;28;20052;-75
2022/05/22 00:33:28;;;;;;;5.97;3.03;;;;;;;;;;5026153;28;20044;-74
2022/05/22 00:35:56;;;;;;;8.05;3.03;;;;;;;;;;5022512;28;20504;-70
2022/05/22 00:38:23;;;;;;;8.82;3.20;;;;;;;;;;5005957;28;20038;-73
2022/05/22 00:40:50;;;;;;;9.00;3.05;;;;;;;;;;5017654;28;21855;-73
2022/05/22 00:43:32;;;;;;;5.65;2.95;;;;;;;;;;5020667;28;20029;-72
2022/05/22 00:46:00;;;;;;;7.72;3.25;;;;;;;;;;5002036;28;20041;-73
2022/05/22 00:48:27;;;;;;;4.93;3.30;;;;;;;;;;5020222;28;20048;-73
2022/05/22 00:51:16;;;;;;;5.57;3.10;;;;;;;;;;5002926;28;20607;-73
2022/05/22 00:53:49;;;;;;;8.43;3.13;;;;;;;;;;5019631;28;20041;-73
2022/05/22 00:56:21;;;;;;;4.47;2.60;;;;;;;;;;5005261;28;20098;-71
2022/05/22 00:58:53;;;;;;;8.23;3.40;;;;;;;;;;5006382;28;20064;-72
2022/05/22 01:01:23;;;;;;;8.05;3.15;;;;;;;;;;5025264;28;20086;-72
2022/05/22 01:03:49;;;;;;;5.32;3.00;;;;;;;;;;4998328;28;20708;-72
2022/05/22 01:06:24;;;;;;;4.95;2.88;;;;;;;;;;5001957;28;20089;-72
2022/05/22 01:08:50;;;;;;;7.30;2.75;;;;;;;;;;4989281;28;20520;-72
2022/05/22 01:11:24;;;;;;;4.85;2.38;;;;;;;;;;5006372;28;20395;-72
2022/05/22 01:14:04;;;;;;;7.85;2.72;;;;;;;;;;4997959;28;20207;-73
2022/05/22 01:16:33;;;;;;;5.70;2.60;;;;;;;;;;5000668;28;20029;-73
2022/05/22 01:18:59;;;;;;;5.78;2.47;;;;;;;;;;5001957;28;20048;-71
2022/05/22 01:21:31;;;;;;;4.63;2.60;;;;;;;;;;4978432;28;20049;-73
2022/05/22 01:23:57;;;;;;;3.97;2.20;;;;;;;;;;5010645;28;20107;-72
2022/05/22 01:26:25;;;;;;;3.72;2.20;;;;;;;;;;5023128;28;20136;-72
2022/05/22 01:28:51;;;;;;;8.63;2.83;;;;;;;;;;5023886;28;20035;-72
2022/05/22 01:31:17;;;;;;;3.72;1.90;;;;;;;;;;5025125;28;21405;-73
2022/05/22 01:33:43;;;;;;;5.68;2.00;;;;;;;;;;5005068;28;20554;-72
2022/05/22 01:36:14;;;;;;;5.70;2.33;;;;;;;;;;5008239;28;20036;-70
2022/05/22 01:38:41;;;;;;;7.63;2.50;;;;;;;;;;5021316;28;20870;-72
2022/05/22 01:41:10;;;;;;;6.93;2.20;;;;;;;;;;5010253;28;21633;-70
2022/05/22 01:43:40;;;;;;;4.85;2.17;;;;;;;;;;5020725;28;20037;-73
2022/05/22 01:46:09;;;;;;;7.18;2.42;;;;;;;;;;5000637;28;20040;-72
2022/05/22 01:48:35;;;;;;;5.30;2.70;;;;;;;;;;5000974;28;20048;-73
2022/05/22 01:51:02;;;;;;;3.75;2.45;;;;;;;;;;5009451;28;20124;-71
2022/05/22 01:53:31;;;;;;;6.63;2.20;;;;;;;;;;5027440;28;20042;-70
2022/05/22 01:55:59;;;;;;;9.40;2.88;;;;;;;;;;5012553;28;20025;-70
2022/05/22 01:58:24;;;;;;;5.90;2.33;;;;;;;;;;5008659;28;20074;-73
2022/05/22 02:00:51;;;;;;;7.47;2.10;;;;;;;;;;5023623;28;20037;-71
2022/05/22 02:03:20;;;;;;;3.80;2.13;;;;;;;;;;4989648;28;20041;-71
2022/05/22 02:05:48;;;;;;;4.18;2.22;;;;;;;;;;4997648;28;20159;-71
2022/05/22 02:08:26;;;;;;;5.78;2.15;;;;;;;;;;4986436;28;20029;-71
2022/05/22 02:10:59;;;;;;;5.75;2.20;;;;;;;;;;5001454;28;20353;-71
2022/05/22 02:13:29;;;;;;;5.22;2.10;;;;;;;;;;5025504;28;21024;-72
2022/05/22 02:15:54;;;;;;;6.30;2.00;;;;;;;;;;5006992;28;20025;-72
2022/05/22 02:18:20;;;;;;;6.07;2.28;;;;;;;;;;5019332;28;20037;-70
2022/05/22 02:20:47;;;;;;;5.82;2.03;;;;;;;;;;5019004;28;20047;-73
2022/05/22 02:23:18;;;;;;;3.50;1.80;;;;;;;;;;5024849;28;20159;-70
2022/05/22 02:25:51;;;;;;;4.30;1.73;;;;;;;;;;5018087;28;20057;-69
2022/05/22 02:28:21;;;;;;;5.82;2.08;;;;;;;;;;5007103;28;20039;-70
2022/05/22 02:30:53;;;;;;;4.03;1.70;;;;;;;;;;5001611;28;20047;-73
2022/05/22 02:33:20;;;;;;;3.60;1.90;;;;;;;;;;5009385;28;20156;-71
2022/05/22 02:35:51;;;;;;;9.18;1.80;;;;;;;;;;5006060;28;20134;-71
2022/05/22 02:38:19;;;;;;;2.75;1.50;;;;;;;;;;5021817;28;20037;-71
2022/05/22 02:40:47;;;;;;;5.88;2.08;;;;;;;;;;5015452;28;22806;-70
2022/05/22 02:43:14;;;;;;;4.15;1.88;;;;;;;;;;5023149;28;20133;-70
2022/05/22 02:45:41;;;;;;;3.65;2.00;;;;;;;;;;4985458;28;20553;-70
2022/05/22 02:48:10;;;;;;;4.90;1.88;;;;;;;;;;5016614;28;20037;-73
2022/05/22 02:50:37;;;;;;;7.70;1.85;;;;;;;;;;5014146;28;20037;-71
2022/05/22 02:53:05;;;;;;;7.70;2.05;;;;;;;;;;5006496;28;20037;-71
2022/05/22 02:55:33;;;;;;;4.72;1.95;;;;;;;;;;5019574;28;20044;-72
2022/05/22 02:57:59;;;;;;;7.22;2.03;;;;;;;;;;4999040;28;20062;-74
2022/05/22 03:00:30;;;;;;;3.83;1.90;;;;;;;;;;4986905;28;20034;-74
2022/05/22 03:02:57;;;;;;;5.53;1.80;;;;;;;;;;5000503;28;20160;-75
2022/05/22 03:05:26;;;;;;;7.97;2.30;;;;;;;;;;4985365;28;20056;-74
2022/05/22 03:07:52;;;;;;;3.90;2.20;;;;;;;;;;5006859;28;20030;-71
2022/05/22 03:10:17;;;;;;;6.53;2.08;;;;;;;;;;5012170;28;21977;-74
2022/05/22 03:12:43;;;;;;;4.95;2.20;;;;;;;;;;5009060;28;20044;-71
2022/05/22 03:15:10;;;;;;;4.85;2.08;;;;;;;;;;5016498;28;20041;-74
2022/05/22 03:17:36;;;;;;;5.90;2.75;;;;;;;;;;5009138;28;20029;-73
2022/05/22 03:20:03;;;;;;;3.97;1.90;;;;;;;;;;5010152;28;20572;-74
2022/05/22 03:22:30;;;;;;;3.50;1.88;;;;;;;;;;5012082;28;20546;-72
2022/05/22 03:24:59;;;;;;;5.72;2.13;;;;;;;;;;5009722;28;20045;-74
2022/05/22 03:27:26;;;;;;;4.07;1.80;;;;;;;;;;5009352;28;20051;-72
2022/05/22 03:29:54;;;;;;;5.72;1.73;;;;;;;;;;5008690;28;20406;-71
2022/05/22 03:32:22;;;;;;;3.75;1.88;;;;;;;;;;5000208;28;20049;-73
2022/05/22 03:34:52;;;;;;;3.65;1.80;;;;;;;;;;5007772;28;20033;-74
2022/05/22 03:37:19;;;;;;;3.72;1.70;;;;;;;;;;4994111;28;20025;-71
2022/05/22 03:39:45;;;;;;;5.18;1.90;;;;;;;;;;5007629;28;20188;-74
2022/05/22 03:42:12;;;;;;;3.97;1.60;;;;;;;;;;5008348;28;20036;-74
2022/05/22 03:44:37;;;;;;;4.90;1.88;;;;;;;;;;4987355;28;20080;-74
2022/05/22 03:47:06;;;;;;;6.07;1.92;;;;;;;;;;5009788;28;21106;-74
2022/05/22 03:49:33;;;;;;;4.60;1.83;;;;;;;;;;5007424;28;20265;-73
2022/05/22 03:51:58;;;;;;;3.80;1.77;;;;;;;;;;5024100;28;20049;-74
2022/05/22 03:54:24;;;;;;;4.68;1.80;;;;;;;;;;5024789;28;20049;-74
2022/05/22 03:56:50;;;;;;;4.57;1.75;;;;;;;;;;5015123;28;20037;-71
2022/05/22 03:59:19;;;;;;;3.47;1.80;;;;;;;;;;5008303;28;20038;-74
2022/05/22 04:01:45;;;;;;;4.53;1.60;;;;;;;;;;4987720;28;21409;-74
2022/05/22 04:04:10;;;;;;;8.50;2.20;;;;;;;;;;5007672;28;20393;-74
2022/05/22 04:06:36;;;;;;;6.72;2.15;;;;;;;;;;5006962;28;20076;-74
2022/05/22 04:09:02;;;;;;;3.47;1.63;;;;;;;;;;5005803;28;20044;-72
2022/05/22 04:11:28;;;;;;;5.22;1.92;;;;;;;;;;5005632;28;20034;-73
2022/05/22 04:13:53;;;;;;;4.70;1.88;;;;;;;;;;5007063;28;20075;-72
2022/05/22 04:16:19;;;;;;;4.72;1.52;;;;;;;;;;5028625;28;20112;-72
2022/05/22 04:18:44;;;;;;;7.07;1.70;;;;;;;;;;5006302;28;20060;-73
2022/05/22 04:21:10;;;;;;;2.83;1.80;;;;;;;;;;5027085;28;20094;-73
2022/05/22 04:26:21;;;;;;;4.95;1.88;;;;;;;;;;5024784;28;20586;-74
2022/05/22 04:28:52;;;;;;;4.80;1.95;;;;;;;;;;5008251;28;20040;-74
2022/05/22 04:31:18;;;;;;;4.10;1.80;;;;;;;;;;5008238;28;20392;-73
2022/05/22 04:33:43;;;;;;;3.50;1.95;;;;;;;;;;5024368;28;20043;-75
2022/05/22 04:36:08;;;;;;;4.28;1.77;;;;;;;;;;5024107;28;20048;-75
2022/05/22 04:38:34;;;;;;;5.03;1.67;;;;;;;;;;5025979;28;20077;-73
2022/05/22 04:41:02;;;;;;;2.03;1.73;;;;;;;;;;5024392;28;20120;-72
2022/05/22 04:43:30;;;;;;;2.35;1.52;;;;;;;;;;5026092;28;20028;-75
2022/05/22 04:45:56;;;;;;;5.10;1.95;;;;;;;;;;5026242;28;20407;-74
2022/05/22 04:48:23;;;;;;;3.88;1.50;;;;;;;;;;5026457;28;20030;-74
2022/05/22 04:50:50;;;;;;;4.78;1.50;;;;;;;;;;5026221;28;20045;-73
2022/05/22 04:53:18;;;;;;;4.43;1.65;;;;;;;;;;5027436;28;22494;-71
2022/05/22 04:55:44;;;;;;;5.00;1.63;;;;;;;;;;5006714;28;20021;-74
2022/05/22 04:58:09;;;;;;;4.47;1.73;;;;;;;;;;5024532;28;20044;-75
2022/05/22 05:00:35;;;;;;;5.80;1.80;;;;;;;;;;5024868;28;20674;-74
2022/05/22 05:03:01;;;;;;;4.53;1.70;;;;;;;;;;5025099;28;20164;-74
2022/05/22 05:05:28;;;;;;;5.15;1.83;;;;;;;;;;5025295;28;20183;-74
2022/05/22 05:07:54;;;;;;;2.88;1.80;;;;;;;;;;5023468;28;20115;-74
2022/05/22 05:10:19;;;;;;;4.38;1.85;;;;;;;;;;5022919;28;20349;-75
2022/05/22 05:12:45;;;;;;;4.20;1.98;;;;;;;;;;5026007;28;20037;-74
2022/05/22 05:15:14;;;;;;;6.00;1.73;;;;;;;;;;5024842;28;20030;-74
2022/05/22 05:17:42;;;;;;;4.05;1.73;;;;;;;;;;5006954;28;20582;-72
2022/05/22 05:20:09;;;;;;;4.85;1.80;;;;;;;;;;5022559;28;20793;-73
2022/05/22 05:22:34;;;;;;;6.40;1.60;;;;;;;;;;5025022;28;20033;-73
2022/05/22 05:25:00;;;;;;;6.70;1.75;;;;;;;;;;5023379;28;20082;-75
2022/05/22 05:27:26;;;;;;;4.03;1.70;;;;;;;;;;5020145;28;20169;-73
2022/05/22 05:29:51;;;;;;;5.13;1.60;;;;;;;;;;5005271;28;20195;-74
2022/05/22 05:32:20;;;;;;;3.88;1.50;;;;;;;;;;5023608;28;20102;-74
2022/05/22 05:34:46;;;;;;;5.60;1.60;;;;;;;;;;5024502;28;21506;-72
2022/05/22 05:37:12;;;;;;;3.55;1.63;;;;;;;;;;5027109;28;20460;-74
2022/05/22 05:39:37;;;;;;;7.85;1.63;;;;;;;;;;5023512;28;20508;-73
2022/05/22 05:42:03;;;;;;;6.65;2.08;;;;;;;;;;5008066;28;21664;-74
2022/05/22 05:44:29;;;;;;;7.15;1.75;;;;;;;;;;5024646;28;20051;-72
2022/05/22 05:46:54;;;;;;;3.92;1.60;;;;;;;;;;5025084;28;20036;-76
2022/05/22 05:49:20;;;;;;;2.80;1.40;;;;;;;;;;5023963;28;20029;-73
2022/05/22 05:51:45;;;;;;;4.10;1.77;;;;;;;;;;5023452;28;20045;-73
2022/05/22 05:54:11;;;;;;;5.25;1.65;;;;;;;;;;5024157;28;20185;-73
2022/05/22 05:56:38;;;;;;;2.53;1.10;;;;;;;;;;5020925;28;20102;-73
2022/05/22 05:59:04;;;;;;;5.28;1.83;;;;;;;;;;5004909;28;20106;-73
2022/05/22 06:01:30;;;;;;;4.13;1.67;;;;;;;;;;5022242;28;20082;-74
2022/05/22 06:03:55;;;;;;;5.65;1.70;;;;;;;;;;5023148;28;20056;-73
2022/05/22 06:06:21;;;;;;;5.70;1.75;;;;;;;;;;5023733;28;20420;-73
2022/05/22 06:08:46;;;;;;;6.43;1.73;;;;;;;;;;5006031;28;20040;-73
2022/05/22 06:11:11;;;;;;;5.38;1.60;;;;;;;;;;5025863;28;20081;-72
2022/05/22 06:13:37;;;;;;;4.13;1.25;;;;;;;;;;5024740;28;20083;-73
2022/05/22 06:16:04;;;;;;;3.75;1.60;;;;;;;;;;5024175;28;20777;-73
2022/05/22 06:18:30;;;;;;;4.50;1.70;;;;;;;;;;5023575;28;20037;-73
2022/05/22 06:20:56;;;;;;;6.35;1.98;;;;;;;;;;5025637;28;20040;-73
2022/05/22 06:23:23;;;;;;;3.17;1.67;;;;;;;;;;5025662;28;20522;-73
2022/05/22 06:25:50;;;;;;;4.97;1.80;;;;;;;;;;5002522;28;20438;-74
2022/05/22 06:28:17;;;;;;;3.90;1.55;;;;;;;;;;5025843;28;20033;-73
2022/05/22 06:30:43;;;;;;;5.32;1.85;;;;;;;;;;5020217;28;20384;-74
2022/05/22 06:33:10;;;;;;;4.70;1.73;;;;;;;;;;5021873;28;20051;-73
2022/05/22 06:35:39;;;;;;;4.32;1.55;;;;;;;;;;5023426;28;23204;-73
2022/05/22 06:38:06;;;;;;;9.32;2.10;;;;;;;;;;5005447;28;20037;-73
2022/05/22 06:40:31;;;;;;;9.15;1.90;;;;;;;;;;5023712;28;20480;-72
2022/05/22 06:42:59;;;;;;;6.20;2.17;;;;;;;;;;5021813;28;20065;-74
2022/05/22 06:45:25;;;;;;;8.82;2.00;;;;;;;;;;5022058;28;22606;-74
2022/05/22 06:47:50;;;;;;;7.03;1.70;;;;;;;;;;5021910;28;20567;-74
2022/05/22 06:50:18;;;;;;;5.28;1.88;;;;;;;;;;5023808;28;20086;-73
2022/05/22 06:52:45;;;;;;;7.65;1.85;;;;;;;;;;5022559;28;20048;-73
2022/05/22 06:55:12;;;;;;;5.70;1.48;;;;;;;;;;5022483;28;20048;-74
2022/05/22 06:57:39;;;;;;;6.57;1.90;;;;;;;;;;5023936;28;20041;-75
2022/05/22 07:00:08;;;;;;;5.65;2.13;;;;;;;;;;5023460;28;20036;-72
2022/05/22 07:02:36;;;;;;;4.05;1.90;;;;;;;;;;5005676;28;20037;-72
2022/05/22 07:05:03;;;;;;;4.05;2.00;;;;;;;;;;5022240;28;20382;-73
2022/05/22 07:07:28;;;;;;;7.82;2.10;;;;;;;;;;5027416;28;20150;-75
2022/05/22 07:09:55;;;;;;;5.97;1.60;;;;;;;;;;5004780;28;20037;-73
2022/05/22 07:12:20;;;;;;;3.63;2.15;;;;;;;;;;5024483;28;20037;-73
2022/05/22 07:14:48;;;;;;;6.13;2.10;;;;;;;;;;5023864;28;20056;-73
2022/05/22 07:17:15;;;;;;;6.63;2.38;;;;;;;;;;5024644;28;20029;-73
2022/05/22 07:19:44;;;;;;;6.28;2.30;;;;;;;;;;5024873;28;20082;-73
2022/05/22 07:22:10;;;;;;;6.40;2.13;;;;;;;;;;5022495;28;20499;-74
2022/05/22 07:24:36;;;;;;;8.80;2.05;;;;;;;;;;5005547;28;20527;-72
2022/05/22 07:27:02;;;;;;;5.53;2.20;;;;;;;;;;5022742;28;20043;-76
2022/05/22 07:29:28;;;;;;;4.78;1.92;;;;;;;;;;5005652;28;20056;-73
2022/05/22 07:31:54;;;;;;;4.63;1.40;;;;;;;;;;5022035;28;20098;-75
2022/05/22 07:34:20;;;;;;;5.20;1.60;;;;;;;;;;5021679;28;20112;-74
2022/05/22 07:36:46;;;;;;;3.90;1.23;;;;;;;;;;5020757;28;20048;-73
2022/05/22 07:39:12;;;;;;;6.50;1.30;;;;;;;;;;5002380;28;20037;-74
2022/05/22 07:41:37;;;;;;;4.88;1.48;;;;;;;;;;5020963;28;20136;-74
2022/05/22 07:44:03;;;;;;;4.47;1.63;;;;;;;;;;5022751;28;20632;-74
2022/05/22 07:46:28;;;;;;;5.20;1.50;;;;;;;;;;5019275;28;20036;-73
2022/05/22 07:48:54;;;;;;;3.33;1.50;;;;;;;;;;5003515;28;20472;-74
2022/05/22 07:51:20;;;;;;;4.13;1.67;;;;;;;;;;5021671;28;20512;-74
2022/05/22 07:53:46;;;;;;;4.20;1.50;;;;;;;;;;5020830;28;20040;-74
2022/05/22 07:56:13;;;;;;;4.25;1.80;;;;;;;;;;5026363;28;20272;-74
2022/05/22 07:58:39;;;;;;;5.32;1.40;;;;;;;;;;4993313;28;20040;-74
2022/05/22 08:01:04;;;;;;;3.03;1.15;;;;;;;;;;5025798;28;20035;-74
2022/05/22 08:03:30;;;;;;;7.05;1.27;;;;;;;;;;5007419;28;20855;-73
2022/05/22 08:05:55;;;;;;;5.10;1.40;;;;;;;;;;5024994;28;20518;-73
2022/05/22 08:08:23;;;;;;;2.75;1.20;;;;;;;;;;5027227;28;20049;-74
2022/05/22 08:10:49;;;;;;;4.85;1.17;;;;;;;;;;5023774;28;20095;-73
2022/05/22 08:13:14;;;;;;;3.70;1.30;;;;;;;;;;5008273;28;20502;-74
2022/05/22 08:15:41;;;;;;;2.35;1.33;;;;;;;;;;5026277;28;20133;-73
2022/05/22 08:18:08;;;;;;;6.55;1.20;;;;;;;;;;5024495;28;20473;-74
2022/05/22 08:20:36;;;;;;;4.82;1.20;;;;;;;;;;5010313;28;20106;-74
2022/05/22 08:23:06;;;;;;;3.22;1.00;;;;;;;;;;5025987;28;20485;-74
2022/05/22 08:25:32;;;;;;;3.30;1.10;;;;;;;;;;5010041;28;20025;-74
2022/05/22 08:27:59;;;;;;;3.30;1.23;;;;;;;;;;5020234;28;20071;-73
2022/05/22 08:30:27;;;;;;;4.97;1.90;;;;;;;;;;5024900;28;20047;-74
2022/05/22 08:32:54;;;;;;;4.90;1.90;;;;;;;;;;5024466;28;21624;-72
2022/05/22 08:35:22;;;;;;;5.53;1.48;;;;;;;;;;5024989;28;20052;-73
2022/05/22 08:37:48;;;;;;;3.72;1.30;;;;;;;;;;5025919;28;20048;-73
2022/05/22 08:40:15;;;;;;;3.13;1.00;;;;;;;;;;5025645;28;20186;-73
2022/05/22 08:42:50;;;;;;;3.20;1.23;;;;;;;;;;5027172;28;20508;-73
2022/05/22 08:45:23;;;;;;;1.52;0.88;;;;;;;;;;5009600;28;20083;-73
2022/05/22 08:48:30;;;;;;;5.97;1.50;;;;;;;;;;5026589;28;20526;-75
2022/05/22 08:50:58;;;;;;;1.38;0.98;;;;;;;;;;5024818;28;20586;-74
2022/05/22 08:53:57;;;;;;;3.38;1.15;;;;;;;;;;5006316;28;20037;-75
2022/05/22 08:59:32;;;;;;;2.20;1.00;;;;;;;;;;5024563;28;20059;-72
2022/05/22 09:02:16;;;;;;;2.70;1.38;;;;;;;;;;5025377;28;20037;-73
2022/05/22 09:04:56;;;;;;;3.95;1.30;;;;;;;;;;5009211;28;20032;-74
2022/05/22 09:07:41;;;;;;;6.97;1.52;;;;;;;;;;5024685;28;20281;-74
2022/05/22 09:10:22;;;;;;;2.03;1.10;;;;;;;;;;5000971;28;20112;-75
2022/05/22 09:13:18;;;;;;;3.38;1.15;;;;;;;;;;5003770;28;20384;-74
2022/05/22 09:15:49;;;;;;;3.42;1.50;;;;;;;;;;5022856;28;20036;-74
2022/05/22 09:18:35;;;;;;;4.00;1.60;;;;;;;;;;5025062;28;20048;-72
2022/05/22 09:21:03;;;;;;;4.82;1.33;;;;;;;;;;5022439;28;20043;-73
2022/05/22 09:23:56;;;;;;;3.88;1.10;;;;;;;;;;5026738;28;20072;-74
2022/05/22 09:26:43;;;;;;;4.50;1.40;;;;;;;;;;5026477;28;20156;-71
2022/05/22 09:29:19;;;;;;;3.35;1.30;;;;;;;;;;5026687;28;20029;-73
2022/05/22 09:32:08;;;;;;;2.20;1.20;;;;;;;;;;5023316;28;20055;-73
2022/05/22 09:34:53;;;;;;;4.28;1.05;;;;;;;;;;5022940;28;20025;-72
2022/05/22 09:37:31;;;;;;;4.63;1.45;;;;;;;;;;5024019;28;20064;-74
2022/05/22 09:40:14;;;;;;;2.25;1.00;;;;;;;;;;5025633;28;20041;-74
2022/05/22 09:43:11;;;;;;;5.50;1.23;;;;;;;;;;5025825;28;20041;-74
2022/05/22 09:46:12;;;;;;;3.22;1.15;;;;;;;;;;5023174;28;20167;-74
2022/05/22 09:48:59;;;;;;;1.98;1.20;;;;;;;;;;5025133;28;20117;-74
2022/05/22 09:51:55;;;;;;;5.13;1.20;;;;;;;;;;5024084;28;20064;-74
2022/05/22 09:54:29;;;;;;;3.72;1.35;;;;;;;;;;5022576;28;22788;-74
2022/05/22 09:57:25;;;;;;;2.65;1.13;;;;;;;;;;5024317;28;20150;-74
2022/05/22 10:00:13;;;;;;;5.25;1.40;;;;;;;;;;5006080;28;20192;-75
2022/05/22 10:03:08;;;;;;;2.30;1.10;;;;;;;;;;5023930;28;20037;-73
2022/05/22 10:05:58;;;;;;;3.35;1.25;;;;;;;;;;5024185;28;20043;-74
2022/05/22 10:08:59;;;;;;;3.13;1.27;;;;;;;;;;5023240;28;20083;-74
2022/05/22 10:11:40;;;;;;;4.63;1.10;;;;;;;;;;5001808;28;20037;-73
2022/05/22 10:14:14;;;;;;;4.03;1.50;;;;;;;;;;5021898;28;20118;-73
2022/05/22 10:16:59;;;;;;;3.63;1.42;;;;;;;;;;5025353;28;20029;-75
2022/05/22 10:19:33;;;;;;;4.35;1.50;;;;;;;;;;5025319;28;20029;-74
2022/05/22 10:22:25;;;;;;;4.70;1.30;;;;;;;;;;5025154;28;20041;-73
2022/05/22 10:25:16;;;;;;;2.72;1.15;;;;;;;;;;5024275;28;20060;-75
2022/05/22 10:27:52;;;;;;;3.65;1.35;;;;;;;;;;5025104;28;20048;-76
2022/05/22 10:30:33;;;;;;;3.72;1.02;;;;;;;;;;5022193;28;20107;-73
2022/05/22 10:33:08;;;;;;;4.35;1.02;;;;;;;;;;5018029;28;20320;-75
2022/05/22 10:35:47;;;;;;;2.83;0.80;;;;;;;;;;5023531;28;20091;-74
2022/05/22 10:38:21;;;;;;;2.53;1.00;;;;;;;;;;5024665;28;20037;-74
2022/05/22 10:43:43;;;;;;;1.73;0.90;;;;;;;;;;5025787;28;20074;-74
2022/05/22 10:46:08;;;;;;;6.25;1.17;;;;;;;;;;5023257;28;20033;-73
2022/05/22 10:48:45;;;;;;;2.65;1.35;;;;;;;;;;5021462;28;20040;-73
2022/05/22 10:51:20;;;;;;;5.00;1.40;;;;;;;;;;5018044;28;20037;-74
2022/05/22 10:53:45;;;;;;;5.38;1.13;;;;;;;;;;5020380;28;20041;-77
2022/05/22 10:56:13;;;;;;;3.88;1.40;;;;;;;;;;5021101;28;20394;-75
2022/05/22 10:58:41;;;;;;;1.63;1.00;;;;;;;;;;5020847;28;20079;-75
2022/05/22 11:01:16;;;;;;;1.92;1.10;;;;;;;;;;5021792;28;20542;-74
2022/05/22 11:03:42;;;;;;;4.18;1.20;;;;;;;;;;5002490;28;20051;-75
2022/05/22 11:06:27;;;;;;;3.47;1.40;;;;;;;;;;5020614;28;20037;-74
2022/05/22 11:08:55;;;;;;;5.25;1.10;;;;;;;;;;5019803;28;20516;-74
2022/05/22 11:11:30;;;;;;;5.95;1.05;;;;;;;;;;5021952;28;20067;-74
2022/05/22 11:14:08;;;;;;;3.60;1.05;;;;;;;;;;5021375;28;20056;-73
2022/05/22 11:16:33;;;;;;;3.00;1.10;;;;;;;;;;5023355;28;20029;-74
2022/05/22 11:19:09;;;;;;;1.80;0.90;;;;;;;;;;5021866;28;20041;-74
2022/05/22 11:22:00;;;;;;;3.20;1.13;;;;;;;;;;5023087;28;20072;-74
2022/05/22 11:24:47;;;;;;;3.90;1.33;;;;;;;;;;5019527;28;20037;-73
2022/05/22 11:27:28;;;;;;;3.53;1.00;;;;;;;;;;5022235;28;20053;-73
2022/05/22 11:30:12;;;;;;;3.87;1.20;;;;;;;;;;5025403;28;20063;-75
2022/05/22 11:32:56;;;;;;;3.92;1.02;;;;;;;;;;5024410;28;20071;-74
2022/05/22 11:36:03;;;;;;;4.15;1.10;;;;;;;;;;5024291;28;20040;-73
2022/05/22 11:38:41;;;;;;;3.90;1.40;;;;;;;;;;4988226;28;20120;-74
2022/05/22 11:41:20;;;;;;;4.57;1.35;;;;;;;;;;5024630;28;20032;-74
2022/05/22 11:44:00;;;;;;;3.80;1.27;;;;;;;;;;5027285;28;20556;-73
2022/05/22 11:46:46;;;;;;;4.30;1.33;;;;;;;;;;5026142;28;20055;-72
2022/05/22 11:49:23;;;;;;;2.58;1.10;;;;;;;;;;5011996;28;20561;-74
2022/05/22 11:52:06;;;;;;;4.40;1.20;;;;;;;;;;5026388;28;20033;-72
2022/05/22 11:54:50;;;;;;;4.15;1.45;;;;;;;;;;5024036;28;20115;-73
2022/05/22 11:57:33;;;;;;;2.63;1.10;;;;;;;;;;5024282;28;20131;-73
2022/05/22 12:00:14;;;;;;;;;;;;;;;;;;5026656;28;20369;-71
2022/05/22 12:02:51;;;;;;;3.78;1.23;;;;;;;;;;5004872;28;19991;-73
2022/05/22 12:05:42;;;;;;;2.40;1.05;;;;;;;;;;5025856;28;20040;-72
2022/05/22 12:08:13;;;;;;;6.63;1.58;;;;;;;;;;5024023;28;20435;-73
2022/05/22 12:10:48;;;;;;;2.85;1.13;;;;;;;;;;5024148;28;20475;-72
2022/05/22 12:13:55;;;;;;;4.18;1.88;;;;;;;;;;5025301;28;20029;-71
2022/05/22 12:16:40;;;;;;;2.20;1.10;;;;;;;;;;4979967;28;20045;-72
2022/05/22 12:19:19;;;;;;;3.90;1.20;;;;;;;;;;5022732;28;20049;-72
2022/05/22 12:22:03;;;;;;;2.40;1.25;;;;;;;;;;5008728;28;20045;-72
2022/05/22 12:24:55;;;;;;;2.38;1.30;;;;;;;;;;5023435;28;20041;-72
2022/05/22 12:27:29;;;;;;;2.70;1.17;;;;;;;;;;5011807;28;20044;-71
2022/05/22 12:30:38;;;;;;;4.38;1.17;;;;;;;;;;5025734;28;20052;-72
2022/05/22 12:33:11;;;;;;;2.90;1.20;;;;;;;;;;4943622;28;20042;-71
2022/05/22 12:35:39;;;;;;;3.55;1.02;;;;;;;;;;5016896;28;20146;-73
2022/05/22 12:38:08;;;;;;;5.88;1.20;;;;;;;;;;5020662;28;20041;-74
2022/05/22 12:40:51;;;;;;;3.05;1.42;;;;;;;;;;5025029;28;20037;-73
2022/05/22 12:43:19;;;;;;;4.03;2.40;;;;;;;;;;5006484;28;20036;-72
2022/05/22 12:45:50;;;;;;;2.35;1.25;;;;;;;;;;5020635;28;20041;-72
2022/05/22 12:48:35;;;;;;;3.83;0.98;;;;;;;;;;5022572;28;20037;-74
2022/05/22 12:51:08;;;;;;;3.15;1.13;;;;;;;;;;5018740;28;20041;-74
2022/05/22 12:53:35;;;;;;;2.58;1.02;;;;;;;;;;5023303;28;20665;-73
2022/05/22 12:56:19;;;;;;;1.85;0.80;;;;;;;;;;5024060;28;20602;-72
2022/05/22 12:59:18;;;;;;;3.50;1.45;;;;;;;;;;5024073;28;20025;-72
2022/05/22 13:01:45;;;;;;;2.15;1.30;;;;;;;;;;5017233;28;20108;-73
2022/05/22 13:04:20;;;;;;;4.60;1.20;;;;;;;;;;5023986;28;20028;-72
2022/05/22 13:07:03;;;;;;;2.28;1.13;;;;;;;;;;5024978;28;21576;-74
2022/05/22 13:09:34;;;;;;;3.00;1.20;;;;;;;;;;5024602;28;20226;-72
2022/05/22 13:12:24;;;;;;;4.80;1.15;;;;;;;;;;5018410;28;20412;-72
2022/05/22 13:14:57;;;;;;;1.85;0.98;;;;;;;;;;5022822;28;20126;-73
2022/05/22 13:17:37;;;;;;;4.68;1.25;;;;;;;;;;5025005;28;20129;-71
2022/05/22 13:20:20;;;;;;;1.92;1.00;;;;;;;;;;5024672;28;20036;-72
2022/05/22 13:22:46;;;;;;;3.95;1.17;;;;;;;;;;5019647;28;20419;-73
2022/05/22 13:25:42;;;;;;;1.60;0.93;;;;;;;;;;5023814;28;22528;-72
2022/05/22 13:28:42;;;;;;;3.50;1.33;;;;;;;;;;5022674;28;20475;-71
2022/05/22 13:31:07;;;;;;;2.60;1.20;;;;;;;;;;4991349;28;20040;-71
2022/05/22 13:33:45;;;;;;;3.90;1.33;;;;;;;;;;5026319;28;20647;-71
2022/05/22 13:36:28;;;;;;;3.17;1.25;;;;;;;;;;5026350;28;20060;-72
2022/05/22 13:39:06;;;;;;;1.52;0.98;;;;;;;;;;5024655;28;21625;-72
2022/05/22 13:41:53;;;;;;;2.00;1.25;;;;;;;;;;5021132;28;20041;-72
2022/05/22 13:44:40;;;;;;;1.90;1.10;;;;;;;;;;5021518;28;20818;-71
2022/05/22 13:47:15;;;;;;;4.70;1.17;;;;;;;;;;5022161;28;20049;-73
2022/05/22 13:49:46;;;;;;;2.55;1.02;;;;;;;;;;5024188;28;20037;-70
2022/05/22 13:52:40;;;;;;;6.43;1.10;;;;;;;;;;5022362;28;20112;-71
2022/05/22 13:55:08;;;;;;;2.25;0.98;;;;;;;;;;5021246;28;20045;-71
2022/05/22 13:57:36;;;;;;;2.30;1.00;;;;;;;;;;5024148;28;20526;-73
2022/05/22 14:00:08;;;;;;;3.03;1.10;;;;;;;;;;5004870;28;20452;-71
2022/05/22 14:02:46;;;;;;;3.72;1.13;;;;;;;;;;5020232;28;20037;-73
2022/05/22 14:05:13;;;;;;;2.25;1.13;;;;;;;;;;5006308;28;20045;-72
2022/05/22 14:07:42;;;;;;;3.88;1.00;;;;;;;;;;5022865;28;20388;-72
2022/05/22 14:10:08;;;;;;;3.55;1.10;;;;;;;;;;5023013;28;20044;-72
2022/05/22 14:12:39;;;;;;;4.32;1.20;;;;;;;;;;5022795;28;20420;-72
2022/05/22 14:15:12;;;;;;;1.98;0.80;;;;;;;;;;5023202;28;20153;-71
2022/05/22 14:17:38;;;;;;;1.73;1.00;;;;;;;;;;5022268;28;20045;-71
2022/05/22 14:20:13;;;;;;;2.35;1.02;;;;;;;;;;5022526;28;20400;-72
2022/05/22 14:22:42;;;;;;;6.97;1.63;;;;;;;;;;5017794;28;20029;-70
2022/05/22 14:25:10;;;;;;;5.45;1.48;;;;;;;;;;5022977;28;20078;-70
2022/05/22 14:27:52;;;;;;;2.30;1.10;;;;;;;;;;5021699;28;20045;-71
2022/05/22 14:30:31;;;;;;;2.88;1.08;;;;;;;;;;5021372;28;20032;-70
2022/05/22 14:32:59;;;;;;;3.15;1.00;;;;;;;;;;5020421;28;20048;-71
2022/05/22 14:35:27;;;;;;;1.92;0.85;;;;;;;;;;5020764;28;20405;-69
2022/05/22 14:37:53;;;;;;;4.70;1.00;;;;;;;;;;5021949;28;20124;-72
2022/05/22 14:40:23;;;;;;;5.97;1.38;;;;;;;;;;5020894;28;20042;-71
2022/05/22 14:42:54;;;;;;;3.22;1.15;;;;;;;;;;5018726;28;20087;-71
2022/05/22 14:45:29;;;;;;;3.97;1.30;;;;;;;;;;5021123;28;20058;-72
2022/05/22 14:47:56;;;;;;;1.45;1.20;;;;;;;;;;5019645;28;20047;-71
2022/05/22 14:50:22;;;;;;;1.17;0.80;;;;;;;;;;5022544;28;20051;-72
2022/05/22 14:52:55;;;;;;;2.63;1.00;;;;;;;;;;5021952;28;20032;-72
2022/05/22 14:55:32;;;;;;;2.58;1.23;;;;;;;;;;5021858;28;20542;-72
2022/05/22 14:58:15;;;;;;;4.80;1.30;;;;;;;;;;5006127;28;20186;-70
2022/05/22 15:00:46;;;;;;;3.22;1.52;;;;;;;;;;5002779;28;20691;-72
2022/05/22 15:03:29;;;;;;;8.18;1.77;;;;;;;;;;5022914;28;20043;-72
2022/05/22 15:05:56;;;;;;;3.92;1.40;;;;;;;;;;5028207;28;20072;-73
2022/05/22 15:08:31;;;;;;;1.83;1.40;;;;;;;;;;5025097;28;20055;-71
2022/05/22 15:10:58;;;;;;;8.25;4.82;;;;;;;;;;5025953;28;20512;-72
2022/05/22 15:13:30;;;;;;;3.90;1.55;;;;;;;;;;5027096;28;20031;-71
2022/05/22 15:16:22;;;;;;;2.05;1.20;;;;;;;;;;5024561;28;20397;-72
2022/05/22 15:21:42;;;;;;;3.15;1.40;;;;;;;;;;5027247;28;20770;-70
2022/05/22 15:27:14;;;;;;;2.35;1.48;;;;;;;;;;4954794;28;20425;-70
2022/05/22 15:29:43;;;;;;;2.42;1.20;;;;;;;;;;5026100;28;20051;-71